TimeCST,TemperatureF,Dew PointF,Humidity,Sea Level PressureIn,VisibilityMPH,Wind Direction,Wind SpeedMPH,Gust SpeedMPH,PrecipitationIn,Events,Conditions,WindDirDegrees,DateUTC
12:24 AM,19.4,15.8,86,29.72,8.0,Calm,Calm,-,N/A,,Overcast,0,2013-01-19 06:24:00
12:52 AM,19.4,15.8,86,29.72,7.0,Calm,Calm,-,N/A,,Overcast,0,2013-01-19 06:52:00
12:55 AM,19.0,16.0,88,29.80,7.0,South,3.5,-,N/A,,Overcast,170,2013-01-19 06:55:00
1:03 AM,19.4,15.8,86,29.71,7.0,Calm,Calm,-,N/A,,Overcast,0,2013-01-19 07:03:00
1:32 AM,19.4,15.8,86,29.70,6.0,SE,4.6,-,N/A,,Overcast,140,2013-01-19 07:32:00
1:53 AM,19.4,15.8,86,29.70,6.0,SSE,4.6,-,N/A,,Overcast,160,2013-01-19 07:53:00
1:55 AM,19.9,16.0,85,29.79,6.0,SSE,4.6,-,N/A,,Overcast,150,2013-01-19 07:55:00
2:55 AM,19.9,17.1,89,29.78,7.0,SSE,6.9,-,N/A,,Overcast,160,2013-01-19 08:55:00
3:14 AM,19.4,17.6,93,29.70,7.0,SSE,5.8,-,N/A,,Overcast,160,2013-01-19 09:14:00
3:22 AM,19.4,17.6,93,29.68,7.0,SE,9.2,-,N/A,,Overcast,140,2013-01-19 09:22:00
3:38 AM,19.4,17.6,93,29.67,10.0,SE,9.2,-,N/A,,Overcast,140,2013-01-19 09:38:00
3:55 AM,19.9,17.1,89,29.76,10.0,ESE,6.9,-,N/A,,Overcast,120,2013-01-19 09:55:00
4:55 AM,21.0,18.0,88,29.72,9.0,SE,6.9,-,0.00,Snow,Light Snow,130,2013-01-19 10:55:00
5:12 AM,21.2,17.6,86,29.63,9.0,ESE,5.8,-,0.00,Snow,Light Snow,120,2013-01-19 11:12:00
5:44 AM,21.2,17.6,86,29.64,8.0,Calm,Calm,-,0.00,Snow,Light Snow,0,2013-01-19 11:44:00
5:55 AM,21.0,18.0,88,29.72,8.0,South,4.6,-,0.00,Snow,Light Snow,180,2013-01-19 11:55:00
6:12 AM,21.2,17.6,86,29.64,8.0,South,5.8,-,0.00,Snow,Light Snow,190,2013-01-19 12:12:00
6:39 AM,21.2,17.6,86,29.62,8.0,South,4.6,-,0.00,,Overcast,170,2013-01-19 12:39:00
6:55 AM,21.9,18.0,85,29.70,7.0,Calm,Calm,-,0.00,Snow,Light Snow,0,2013-01-19 12:55:00
7:18 AM,21.2,17.6,86,29.61,7.0,South,4.6,-,0.00,Snow,Light Snow,180,2013-01-19 13:18:00
7:55 AM,21.9,18.0,85,29.67,6.0,South,5.8,-,0.00,Snow,Light Snow,180,2013-01-19 13:55:00
8:55 AM,21.9,19.0,89,29.65,5.0,SW,6.9,-,0.00,,Mostly Cloudy,230,2013-01-19 14:55:00
9:20 AM,21.2,19.4,93,29.57,5.0,WSW,11.5,-,N/A,,Mostly Cloudy,250,2013-01-19 15:20:00
9:55 AM,26.1,21.9,84,29.64,7.0,West,16.1,-,N/A,,Mostly Cloudy,260,2013-01-19 15:55:00
10:55 AM,28.0,23.0,81,29.61,7.0,West,11.5,20.7,0.01,Snow,Light Snow,280,2013-01-19 16:55:00
11:22 AM,28.4,23.0,80,29.54,9.0,West,18.4,26.5,0.00,,Overcast,280,2013-01-19 17:22:00
11:55 AM,28.9,21.9,75,29.62,10.0,West,19.6,31.1,0.00,,Overcast,280,2013-01-19 17:55:00
12:55 PM,28.9,21.9,75,29.60,10.0,WNW,21.9,28.8,N/A,,Overcast,290,2013-01-19 18:55:00
1:10 PM,28.4,21.2,74,29.53,10.0,West,25.3,34.5,N/A,,Overcast,280,2013-01-19 19:10:00
1:52 PM,24.8,17.6,74,29.54,9.0,NW,19.6,31.1,0.00,Snow,Light Snow,310,2013-01-19 19:52:00
1:55 PM,24.1,17.1,75,29.62,8.0,WNW,20.7,31.1,0.00,Snow,Light Snow,300,2013-01-19 19:55:00
2:12 PM,21.2,12.2,68,29.56,1.8,WNW,25.3,34.5,0.00,Snow,Light Snow,300,2013-01-19 20:12:00
2:23 PM,21.2,12.2,68,29.57,1.5,WNW,20.7,38.0,0.00,Snow,Light Snow,290,2013-01-19 20:23:00
2:55 PM,18.0,9.0,68,29.68,1.5,WNW,18.4,33.4,0.00,Snow,Light Snow,300,2013-01-19 20:55:00
3:19 PM,15.8,6.8,68,29.61,1.2,WNW,23.0,36.8,0.00,Snow,Light Snow,290,2013-01-19 21:19:00
3:31 PM,15.8,6.8,68,29.62,2.5,WNW,26.5,39.1,0.00,Snow,Light Snow,290,2013-01-19 21:31:00
3:51 PM,14.0,5.0,67,29.63,1.8,WNW,21.9,34.5,0.00,Snow,Light Snow,300,2013-01-19 21:51:00
3:52 PM,14.0,5.0,67,29.72,1.8,WNW,21.9,34.5,0.00,Snow,Light Snow,300,2013-01-19 21:52:00
4:00 PM,12.2,6.8,79,29.64,0.5,WNW,21.9,35.7,0.00,Snow,Light Snow,300,2013-01-19 22:00:00
4:10 PM,12.2,6.8,79,29.66,0.2,NW,20.7,34.5,0.00,Snow,Light Snow,310,2013-01-19 22:10:00
4:19 PM,12.2,6.8,79,29.66,1.0,WNW,23.0,33.4,0.00,Snow,Light Snow,290,2013-01-19 22:19:00
4:43 PM,10.4,3.2,73,29.68,0.8,NW,23.0,34.5,0.00,Snow,Light Snow,310,2013-01-19 22:43:00
4:53 PM,10.4,3.2,73,29.70,1.2,WNW,24.2,34.5,0.00,Snow,Light Snow,300,2013-01-19 22:53:00
4:55 PM,10.0,3.0,73,29.79,1.0,NW,26.5,36.8,0.00,Snow,Light Snow,310,2013-01-19 22:55:00
5:03 PM,8.6,-0.4,67,29.71,0.8,WNW,32.2,42.6,0.00,Snow,Light Snow,300,2013-01-19 23:03:00
5:13 PM,8.6,-0.4,67,29.72,1.8,WNW,24.2,41.4,0.00,Snow,Light Snow,300,2013-01-19 23:13:00
5:15 PM,8.6,-0.4,67,29.73,2.0,NW,25.3,36.8,0.00,Snow,Light Snow,310,2013-01-19 23:15:00
5:29 PM,8.6,-2.2,62,29.74,1.5,NW,24.2,38.0,0.00,Snow,Light Snow,310,2013-01-19 23:29:00
5:40 PM,6.8,-4.0,61,29.75,3.0,NW,26.5,36.8,0.00,Snow,Light Snow,310,2013-01-19 23:40:00
5:45 PM,6.8,-4.0,61,29.76,1.8,NW,20.7,40.3,0.00,Snow,Light Snow,320,2013-01-19 23:45:00
5:55 PM,6.1,-6.0,58,29.87,4.0,NW,27.6,40.3,0.00,Snow,Light Snow,310,2013-01-19 23:55:00
6:35 PM,3.2,-4.0,72,29.81,2.5,WNW,23.0,32.2,0.00,Snow,Light Snow,300,2013-01-20 00:35:00
6:45 PM,3.2,-4.0,72,29.81,3.0,NW,20.7,35.7,0.00,Snow,Light Snow,310,2013-01-20 00:45:00
6:55 PM,3.9,-4.0,70,29.92,3.0,NW,19.6,29.9,0.00,Snow,Light Snow,310,2013-01-20 00:55:00
6:59 PM,3.2,-4.0,72,29.83,2.5,NW,18.4,28.8,0.00,Snow,Light Snow,310,2013-01-20 00:59:00
7:10 PM,3.2,-4.0,72,29.84,1.0,NW,18.4,32.2,0.00,Snow,Light Snow,320,2013-01-20 01:10:00
7:27 PM,3.2,-7.6,61,29.85,3.0,NW,15.0,29.9,0.00,Snow,Light Snow,320,2013-01-20 01:27:00
7:55 PM,1.9,-8.0,63,29.99,5.0,NW,23.0,40.3,0.00,Snow,Light Snow,320,2013-01-20 01:55:00
8:55 PM,1.0,-8.0,66,30.04,8.0,NW,15.0,24.2,0.00,Snow,Light Snow,320,2013-01-20 02:55:00
9:11 PM,1.4,-7.6,66,29.95,8.0,NNW,20.7,31.1,0.00,Snow,Light Snow,330,2013-01-20 03:11:00
9:55 PM,-0.0,-9.0,66,30.09,8.0,NW,18.4,26.5,0.00,,Partly Cloudy,320,2013-01-20 03:55:00
10:55 PM,-0.9,-9.0,69,30.13,10.0,NW,18.4,28.8,N/A,,Partly Cloudy,320,2013-01-20 04:55:00
11:55 PM,-2.0,-9.9,69,30.16,10.0,NW,12.7,25.3,N/A,,Clear,320,2013-01-20 05:55:00